Aérodrome :
LOGIN :

S'inscrire | Disclaimer

   EN    FR    IT 

 










Légende :    VFR   VFR Marginal   IFR   IFR Intensif   IFR Très Intensif
Visi : 
Plafond : 
>= 8 km
>= 3000ft
5 à 8 km
1000 à 3000 ft
1500m à 5 km
500 à 1000 ft
800 à 1500m
200 à 500 ft
< 800m
< 200 ft
Symboles :   Orages  Brouillard  Fortes neiges  Fortes précipitations  Vent > 20 kt
SIGMETs :   Divers  Orages  Givrage  Turbulence  Onde Orograph.  Cendres Volcan.






- Altitude de l'aérodrome : 7 ft
- Code IATA : XHE


LFTH - Hyeres

DERNIER METAR :
  • 152030Z AUTO 26008KT 230V300 CAVOK 17/06 Q1015 TEMPO 26015G25KT

METARs EXPIRÉS :
  • 152000Z AUTO 28010KT 240V320 CAVOK 17/07 Q1015 BECMG 26015G25KT
  • 151930Z AUTO 30011KT CAVOK 17/08 Q1014 BECMG 26015G25KT
  • 151900Z AUTO 29012KT CAVOK 17/08 Q1014 BECMG 26015G25KT
  • 151830Z AUTO 30010KT CAVOK 18/08 Q1014 BECMG 26015G25KT
  • 151800Z AUTO 29009KT CAVOK 18/09 Q1014 BECMG 26015G25KT

TAF TAF LFTH
Valide du 15 à 21h jusqu'au 16 à 21h UTC


152000Z 1521/1621 30010KT CAVOK
TEMPO 1521/1608 26015G25KT
BECMG 1610/1612 27015KT
BECMG 1615/1617 20010KT
BECMG 1619/1621 16005KT



MET'MAP, la Météo Aéronautique d'un coup d'oeil ! - Copyright ORBIFLY Décembre 2007 - Disclaimer

ORBIFLY MET'MAP TEAM :

Programmation & Développement : Alexandra Zaïnal
Conception & Développement : Baudouin d'Aumeries
Co-Programmation & Développement : Marc-Olivier Méhu
Soutien technique & logistique : Manuel Goepfert

Contact : metmap@orbifly.com




SOURCES & CREDITS :

   NOAA